createdAt,value
2018-12-11T00:03:42.322Z,84.80
2018-12-11T00:07:45.250Z,84.80
2018-12-11T00:11:48.168Z,85.40
2018-12-11T00:15:51.032Z,84.70
2018-12-11T00:19:53.889Z,85.30
2018-12-11T00:23:56.805Z,84.90
2018-12-11T00:27:59.654Z,84.90
2018-12-11T00:32:02.473Z,84.90
2018-12-11T00:36:05.340Z,85.40
2018-12-11T00:40:08.324Z,85.30
2018-12-11T00:44:11.187Z,85.30
2018-12-11T00:48:14.044Z,84.60
2018-12-11T00:52:16.865Z,84.50
2018-12-11T00:56:19.715Z,84.70
2018-12-11T01:00:22.561Z,84.50
2018-12-11T01:04:25.402Z,84.60
2018-12-11T01:08:28.261Z,84.90
2018-12-11T01:12:31.763Z,85.00
2018-12-11T01:16:35.293Z,84.90
2018-12-11T01:20:38.284Z,85.10
2018-12-11T01:24:41.136Z,85.30
2018-12-11T01:28:43.993Z,85.20
2018-12-11T01:32:46.809Z,85.80
2018-12-11T01:36:49.670Z,85.70
2018-12-11T01:40:52.512Z,85.40
2018-12-11T01:44:55.384Z,85.50
2018-12-11T01:48:58.250Z,84.70
2018-12-11T01:53:01.148Z,84.70
2018-12-11T01:57:04.093Z,85.20
2018-12-11T02:01:06.945Z,85.20
2018-12-11T02:05:09.813Z,84.90
2018-12-11T02:09:12.672Z,85.20
2018-12-11T02:13:15.543Z,84.40
2018-12-11T02:17:18.372Z,85.10
2018-12-11T02:21:21.333Z,85.20
2018-12-11T02:25:24.173Z,85.30
2018-12-11T02:29:27.016Z,84.90
2018-12-11T02:33:29.848Z,84.90
2018-12-11T02:37:32.725Z,85.40
2018-12-11T02:41:35.613Z,84.80
2018-12-11T02:45:38.453Z,84.70
2018-12-11T02:49:41.285Z,85.00
2018-12-11T02:53:44.159Z,84.80
2018-12-11T02:57:46.966Z,84.60
2018-12-11T03:01:49.852Z,85.30
2018-12-11T03:05:52.713Z,84.40
2018-12-11T03:09:55.557Z,84.20
2018-12-11T03:13:58.413Z,84.20
2018-12-11T03:18:01.215Z,84.30
2018-12-11T03:22:04.073Z,84.30
2018-12-11T03:26:06.920Z,84.40
2018-12-11T03:30:09.761Z,84.30
2018-12-11T03:34:12.624Z,84.20
2018-12-11T03:38:15.471Z,84.80
2018-12-11T03:42:18.300Z,84.90
2018-12-11T03:46:21.224Z,84.80
2018-12-11T03:50:24.066Z,84.90
2018-12-11T03:54:28.090Z,84.30
2018-12-11T03:58:30.925Z,84.40
2018-12-11T04:02:33.909Z,84.30
2018-12-11T04:06:36.825Z,85.20
2018-12-11T04:10:39.804Z,84.50
2018-12-11T04:14:42.694Z,84.50
2018-12-11T04:18:45.571Z,85.20
2018-12-11T04:22:48.408Z,84.40
2018-12-11T04:26:51.239Z,85.00
2018-12-11T04:30:54.072Z,84.20
2018-12-11T04:34:56.899Z,84.50
2018-12-11T04:38:59.712Z,84.40
2018-12-11T04:43:02.553Z,84.40
2018-12-11T04:47:05.525Z,84.20
2018-12-11T04:51:08.368Z,84.40
2018-12-11T04:55:11.208Z,84.20
2018-12-11T04:59:14.012Z,84.30
2018-12-11T05:03:16.936Z,84.90
2018-12-11T05:07:19.782Z,84.90
2018-12-11T05:11:22.651Z,85.20
2018-12-11T05:15:25.489Z,84.60
2018-12-11T05:19:28.289Z,84.80
2018-12-11T05:23:31.122Z,84.90
2018-12-11T05:27:33.993Z,85.30
2018-12-11T05:31:36.868Z,85.20
2018-12-11T05:35:39.715Z,85.10
2018-12-11T05:39:42.528Z,85.10
2018-12-11T05:43:45.378Z,85.10
2018-12-11T05:49:23.586Z,85.20
2018-12-11T05:53:27.902Z,85.40
2018-12-11T05:57:31.533Z,84.70
2018-12-11T06:01:35.197Z,83.90
2018-12-11T06:05:38.862Z,83.30
2018-12-11T06:09:42.501Z,83.60
2018-12-11T06:13:46.161Z,84.00
2018-12-11T06:17:49.776Z,83.50
2018-12-11T06:21:53.426Z,83.20
2018-12-11T06:25:57.050Z,82.80
2018-12-11T06:30:00.643Z,83.40
2018-12-11T06:34:04.414Z,82.90
2018-12-11T06:38:08.065Z,83.10
2018-12-11T06:42:11.717Z,82.70
2018-12-11T06:46:15.363Z,82.40
2018-12-11T06:50:19.001Z,82.50
2018-12-11T06:54:22.654Z,82.30
2018-12-11T06:58:26.305Z,82.50
2018-12-11T07:02:30.050Z,82.50
2018-12-11T07:06:33.705Z,82.50
2018-12-11T07:10:37.409Z,82.20
2018-12-11T07:14:41.246Z,82.20
2018-12-11T07:18:44.882Z,82.10
2018-12-11T07:22:48.601Z,82.40
2018-12-11T07:26:52.250Z,82.40
2018-12-11T07:30:55.901Z,82.50
2018-12-11T07:34:59.531Z,82.40
2018-12-11T07:39:05.023Z,82.90
2018-12-11T07:43:08.703Z,83.30
2018-12-11T07:47:12.328Z,83.00
2018-12-11T07:51:16.066Z,82.80
2018-12-11T07:55:19.663Z,83.50
2018-12-11T07:59:23.306Z,82.60
2018-12-11T08:03:27.086Z,82.30
2018-12-11T08:07:31.158Z,83.10
2018-12-11T08:11:34.817Z,82.80
2018-12-11T08:15:38.449Z,82.10
2018-12-11T08:19:42.116Z,82.10
2018-12-11T08:23:45.746Z,82.20
2018-12-11T08:27:49.386Z,82.40
2018-12-11T08:31:53.117Z,82.20
2018-12-11T08:35:56.718Z,82.00
2018-12-11T08:40:00.367Z,82.00
2018-12-11T08:44:04.021Z,82.00
2018-12-11T08:48:07.662Z,82.20
2018-12-11T08:52:11.292Z,82.30
2018-12-11T08:56:14.943Z,82.40
2018-12-11T09:00:18.595Z,82.30
2018-12-11T09:04:22.295Z,82.10
2018-12-11T09:08:25.985Z,81.60
2018-12-11T09:12:36.313Z,81.70
2018-12-11T09:16:40.397Z,81.90
2018-12-11T09:20:45.881Z,82.90
2018-12-11T09:24:51.791Z,82.30
2018-12-11T09:28:55.467Z,82.60
2018-12-11T09:32:59.201Z,82.60
2018-12-11T09:37:04.240Z,82.60
2018-12-11T09:41:07.874Z,82.50
2018-12-11T09:45:11.690Z,82.30
2018-12-11T09:49:15.484Z,82.50
2018-12-11T09:53:19.285Z,82.50
2018-12-11T09:57:22.979Z,82.60
2018-12-11T10:01:26.605Z,82.30
2018-12-11T10:05:30.264Z,83.20
2018-12-11T10:09:33.889Z,82.40
2018-12-11T10:13:37.643Z,82.70
2018-12-11T10:17:41.248Z,82.20
2018-12-11T10:21:44.865Z,82.30
2018-12-11T10:25:48.510Z,82.20
2018-12-11T10:29:52.153Z,82.10
2018-12-11T10:33:55.899Z,82.10
2018-12-11T10:37:59.560Z,82.00
2018-12-11T10:42:03.167Z,81.70
2018-12-11T10:46:06.866Z,81.80
2018-12-11T10:50:10.578Z,81.80
2018-12-11T10:54:14.230Z,81.40
2018-12-11T10:58:17.987Z,81.90
2018-12-11T11:02:26.113Z,81.60
2018-12-11T11:06:29.828Z,82.50
2018-12-11T11:10:33.693Z,81.70
2018-12-11T11:14:37.357Z,81.50
2018-12-11T11:18:41.023Z,81.40
2018-12-11T11:22:44.666Z,81.40
2018-12-11T11:26:48.426Z,81.50
2018-12-11T11:30:52.063Z,81.50
2018-12-11T11:34:55.695Z,81.60
2018-12-11T11:38:59.574Z,81.20
2018-12-11T11:43:03.210Z,80.90
2018-12-11T11:47:07.074Z,81.40
2018-12-11T11:51:10.726Z,80.60
2018-12-11T11:55:14.384Z,80.70
2018-12-11T11:59:18.033Z,80.60
2018-12-11T12:03:21.671Z,80.80
2018-12-11T12:07:25.328Z,81.20
2018-12-11T12:11:29.027Z,80.70
2018-12-11T12:15:32.736Z,80.80
2018-12-11T12:19:36.670Z,80.50
2018-12-11T12:23:40.286Z,80.70
2018-12-11T12:27:43.941Z,80.80
2018-12-11T12:31:47.582Z,80.20
2018-12-11T12:35:51.274Z,80.40
2018-12-11T12:39:54.921Z,80.90
2018-12-11T12:43:58.650Z,80.80
2018-12-11T12:48:02.347Z,80.60
2018-12-11T12:52:06.046Z,80.80
2018-12-11T12:56:09.716Z,80.90
2018-12-11T13:00:13.410Z,80.60
2018-12-11T13:04:17.084Z,80.20
2018-12-11T13:08:20.690Z,80.50
2018-12-11T13:12:24.405Z,80.10
2018-12-11T13:16:28.053Z,80.50
2018-12-11T13:20:31.727Z,80.20
2018-12-11T13:24:35.396Z,80.40
2018-12-11T13:28:39.022Z,80.00
2018-12-11T13:32:42.690Z,80.20
2018-12-11T13:36:46.361Z,80.00
2018-12-11T13:40:50.236Z,80.50
2018-12-11T13:44:53.950Z,80.40
2018-12-11T13:48:57.615Z,80.20
2018-12-11T13:53:01.355Z,80.90
2018-12-11T13:57:05.139Z,80.10
2018-12-11T14:01:08.818Z,80.00
2018-12-11T14:05:12.487Z,80.00
2018-12-11T14:09:21.658Z,80.00
2018-12-11T14:13:25.369Z,80.00
2018-12-11T14:17:29.068Z,80.80
2018-12-11T14:21:32.769Z,80.20
2018-12-11T14:25:36.660Z,80.10
2018-12-11T14:29:40.522Z,80.20
2018-12-11T14:33:44.166Z,80.20
2018-12-11T14:37:47.827Z,80.00
2018-12-11T14:41:51.522Z,80.00
2018-12-11T14:45:55.191Z,80.00
2018-12-11T14:49:58.866Z,79.80
2018-12-11T14:54:02.902Z,80.70
2018-12-11T14:58:06.944Z,79.70
2018-12-11T15:02:10.641Z,79.70
2018-12-11T15:06:14.322Z,79.70
2018-12-11T15:10:18.013Z,79.70
2018-12-11T15:14:21.691Z,79.60
2018-12-11T15:18:25.349Z,79.50
2018-12-11T15:22:29.033Z,79.50
2018-12-11T15:26:33.041Z,79.40
2018-12-11T15:30:36.705Z,79.40
2018-12-11T15:34:40.344Z,79.30
2018-12-11T15:38:44.034Z,79.20
2018-12-11T15:42:48.117Z,79.00
2018-12-11T15:46:52.178Z,78.80
2018-12-11T15:50:55.859Z,78.50
2018-12-11T15:54:59.495Z,78.40
2018-12-11T15:59:03.157Z,78.10
2018-12-11T16:03:06.882Z,78.10
2018-12-11T16:07:10.629Z,78.10
2018-12-11T16:11:14.271Z,78.00
2018-12-11T16:15:17.911Z,78.00
2018-12-11T16:19:21.525Z,77.30
2018-12-11T16:23:25.204Z,77.80
2018-12-11T16:27:29.279Z,78.00
2018-12-11T16:31:33.074Z,78.10
2018-12-11T16:35:36.676Z,79.30
2018-12-11T16:39:40.323Z,78.50
2018-12-11T16:43:44.066Z,78.60
2018-12-11T16:47:47.685Z,78.50
2018-12-11T16:51:51.347Z,78.40
2018-12-11T16:55:54.969Z,78.20
2018-12-11T16:59:58.610Z,78.20
2018-12-11T17:04:02.235Z,78.00
2018-12-11T17:08:05.845Z,78.10
2018-12-11T17:12:09.735Z,77.80
2018-12-11T17:16:13.783Z,77.60
2018-12-11T17:20:17.418Z,77.80
2018-12-11T17:24:21.030Z,77.70
2018-12-11T17:28:24.673Z,77.30
2018-12-11T17:32:28.318Z,77.40
2018-12-11T17:36:31.957Z,77.10
2018-12-11T17:40:35.553Z,77.10
2018-12-11T17:44:39.198Z,77.10
2018-12-11T17:48:42.869Z,76.90
2018-12-11T17:52:46.554Z,77.10
2018-12-11T17:56:50.220Z,77.10
2018-12-11T18:00:53.867Z,77.00
2018-12-11T18:04:57.508Z,76.90
2018-12-11T18:09:01.165Z,76.20
2018-12-11T18:13:05.041Z,76.70
2018-12-11T18:17:08.698Z,76.90
2018-12-11T18:21:12.309Z,76.70
2018-12-11T18:25:15.960Z,76.70
2018-12-11T18:29:19.615Z,76.70
2018-12-11T18:33:23.321Z,76.60
2018-12-11T18:37:26.994Z,76.80
2018-12-11T18:41:30.602Z,76.80
2018-12-11T18:45:34.389Z,76.50
2018-12-11T18:49:38.104Z,76.70
2018-12-11T18:53:41.777Z,77.60
2018-12-11T18:57:45.471Z,76.90
2018-12-11T19:01:49.092Z,76.70
2018-12-11T19:05:52.807Z,76.90
2018-12-11T19:09:56.583Z,77.10
2018-12-11T19:14:00.287Z,77.30
2018-12-11T19:18:03.921Z,77.00
2018-12-11T19:22:07.685Z,77.10
2018-12-11T19:26:11.350Z,76.70
2018-12-11T19:30:15.034Z,77.00
2018-12-11T19:34:18.778Z,76.60
2018-12-11T19:38:22.406Z,77.60
2018-12-11T19:42:26.032Z,76.90
2018-12-11T19:46:29.670Z,76.90
2018-12-11T19:50:33.330Z,76.80
2018-12-11T19:54:36.981Z,76.80
2018-12-11T19:58:40.850Z,76.70
2018-12-11T20:02:44.497Z,76.80
2018-12-11T20:06:48.116Z,76.80
2018-12-11T20:10:54.667Z,76.80
2018-12-11T20:15:04.462Z,76.60
2018-12-11T20:19:04.324Z,76.70
2018-12-11T20:23:07.965Z,76.90
2018-12-11T20:27:11.567Z,77.10
2018-12-11T20:31:15.305Z,76.90
2018-12-11T20:35:18.963Z,77.10
2018-12-11T20:39:22.608Z,76.90
2018-12-11T20:43:26.472Z,77.30
2018-12-11T20:47:30.078Z,77.10
2018-12-11T20:51:33.738Z,76.40
2018-12-11T20:55:37.397Z,77.20
2018-12-11T20:59:41.039Z,76.90
2018-12-11T21:03:44.783Z,77.20
2018-12-11T21:07:48.542Z,77.20
2018-12-11T21:11:52.318Z,77.20
2018-12-11T21:15:56.144Z,77.20
2018-12-11T21:19:59.858Z,77.40
2018-12-11T21:24:03.906Z,77.40
2018-12-11T21:28:07.526Z,77.40
2018-12-11T21:32:11.271Z,77.40
2018-12-11T21:36:14.996Z,77.50
2018-12-11T21:40:18.860Z,77.50
2018-12-11T21:44:22.670Z,77.50
2018-12-11T21:48:26.445Z,77.50
2018-12-11T21:52:30.148Z,77.50
2018-12-11T21:56:33.893Z,77.20
2018-12-11T22:00:37.730Z,77.50
2018-12-11T22:04:41.572Z,77.40
2018-12-11T22:08:45.262Z,77.50
2018-12-11T22:12:49.290Z,77.50
2018-12-11T22:16:53.114Z,77.50
2018-12-11T22:20:57.022Z,77.60
2018-12-11T22:25:00.758Z,77.50
2018-12-11T22:29:04.483Z,77.50
2018-12-11T22:33:08.324Z,77.40
2018-12-11T22:37:12.071Z,77.40
2018-12-11T22:41:15.871Z,77.20
2018-12-11T22:45:20.151Z,77.30
2018-12-11T22:49:23.977Z,77.10
2018-12-11T22:53:34.289Z,77.50
2018-12-11T22:57:37.946Z,77.50
2018-12-11T23:01:41.626Z,77.60
2018-12-11T23:05:45.254Z,77.70
2018-12-11T23:09:49.019Z,77.40
2018-12-11T23:13:52.701Z,77.50
2018-12-11T23:17:56.345Z,77.60
2018-12-11T23:21:59.983Z,77.60
2018-12-11T23:26:03.619Z,77.60
2018-12-11T23:30:07.514Z,77.60
2018-12-11T23:34:11.363Z,77.80
2018-12-11T23:38:15.109Z,77.70
2018-12-11T23:42:18.800Z,77.80
2018-12-11T23:46:22.437Z,77.90
2018-12-11T23:50:26.082Z,77.90
2018-12-11T23:54:29.757Z,77.90
2018-12-11T23:58:33.441Z,77.90
